Time;durP1;ratioP1;P1;durP2;ratioP2;P2;SDS_P1;SDS_P2;PMS_P1;PMS_P2;Temp;Humidity;BMP_temperature;BMP_pressure;BME280_temperature;BME280_humidity;BME280_pressure;Samples;Min_cycle;Max_cycle;Signal;HPM_P1;HPM_P2
2023/12/03 19:26:19;;;;;;;5.43;1.87;;;1.70;99.90;;;;;;3604833;23;20250;-74
2023/12/03 19:28:46;;;;;;;5.40;2.10;;;1.70;99.90;;;;;;4899552;29;20733;-72
2023/12/03 19:31:12;;;;;;;3.87;1.87;;;1.70;99.90;;;;;;4899786;29;20282;-72
2023/12/03 19:33:39;;;;;;;7.47;2.23;;;1.80;99.90;;;;;;4899434;29;20712;-73
2023/12/03 19:36:07;;;;;;;3.50;1.70;;;1.90;99.90;;;;;;4899485;29;20207;-72
2023/12/03 19:38:34;;;;;;;6.87;2.00;;;2.00;99.90;;;;;;4899190;29;20604;-74
2023/12/03 19:41:02;;;;;;;5.87;1.97;;;2.00;99.90;;;;;;4899666;29;20214;-77
2023/12/03 19:43:30;;;;;;;6.57;2.47;;;2.00;99.90;;;;;;4899703;29;20238;-73
2023/12/03 19:45:57;;;;;;;7.90;2.17;;;2.10;99.90;;;;;;4898294;29;20210;-75
2023/12/03 19:48:26;;;;;;;7.87;2.40;;;2.10;99.90;;;;;;4898523;29;20282;-74
2023/12/03 19:50:52;;;;;;;6.00;2.37;;;2.20;99.90;;;;;;4898440;29;20289;-76
2023/12/03 19:53:19;;;;;;;4.07;1.97;;;2.20;99.90;;;;;;4896254;29;20313;-74
2023/12/03 19:55:47;;;;;;;9.57;2.10;;;2.20;99.90;;;;;;4898451;29;20210;-75
2023/12/03 19:58:16;;;;;;;4.50;1.87;;;2.20;99.90;;;;;;4897667;29;20212;-74
2023/12/03 20:00:44;;;;;;;4.70;1.70;;;2.20;99.90;;;;;;4896987;29;20214;-73
2023/12/03 20:03:11;;;;;;;4.20;1.83;;;2.10;99.90;;;;;;4898554;29;20264;-73
2023/12/03 20:05:38;;;;;;;4.27;1.83;;;2.10;99.90;;;;;;4898446;29;20248;-73
2023/12/03 20:08:06;;;;;;;8.47;2.97;;;2.10;99.90;;;;;;4898350;29;20670;-73
2023/12/03 20:10:33;;;;;;;5.83;2.27;;;2.10;99.90;;;;;;4898300;29;20670;-73
2023/12/03 20:13:00;;;;;;;4.87;2.03;;;2.10;99.90;;;;;;4898509;29;20332;-73
2023/12/03 20:15:29;;;;;;;5.57;2.70;;;2.00;99.90;;;;;;4898741;29;20218;-73
2023/12/03 20:17:57;;;;;;;5.07;1.90;;;2.00;99.90;;;;;;4898416;29;20214;-73
2023/12/03 20:20:24;;;;;;;4.77;2.03;;;2.00;99.90;;;;;;4898405;29;20233;-73
2023/12/03 20:22:56;;;;;;;6.43;2.03;;;2.00;99.90;;;;;;4898499;29;20317;-73
2023/12/03 20:25:23;;;;;;;5.60;2.00;;;2.00;99.90;;;;;;4897908;29;20230;-73
2023/12/03 20:27:53;;;;;;;4.33;1.87;;;2.00;99.90;;;;;;4897773;29;20218;-73
2023/12/03 20:30:21;;;;;;;6.53;2.27;;;2.00;99.90;;;;;;4898218;29;20745;-73
2023/12/03 20:32:50;;;;;;;8.60;2.13;;;2.10;99.90;;;;;;4898107;29;20276;-73
2023/12/03 20:35:18;;;;;;;12.53;2.00;;;2.00;99.90;;;;;;4898335;29;20207;-81
2023/12/03 20:37:45;;;;;;;6.20;2.63;;;2.00;99.90;;;;;;4898279;29;20217;-74
2023/12/03 20:40:13;;;;;;;5.40;2.00;;;2.00;99.90;;;;;;4898001;29;20782;-75
2023/12/03 20:42:42;;;;;;;5.63;2.27;;;2.00;99.90;;;;;;4897836;29;20214;-81
2023/12/03 20:45:13;;;;;;;8.90;2.70;;;2.00;99.90;;;;;;4898234;29;20219;-73
2023/12/03 20:47:39;;;;;;;3.87;1.60;;;2.00;99.90;;;;;;4897703;29;20254;-74
2023/12/03 20:50:07;;;;;;;6.47;2.17;;;2.00;99.90;;;;;;4898305;29;20733;-73
2023/12/03 20:52:35;;;;;;;6.33;2.10;;;2.00;99.90;;;;;;4897834;29;20238;-74
2023/12/03 20:55:02;;;;;;;4.03;1.50;;;2.00;99.90;;;;;;4897414;29;20238;-73
2023/12/03 20:57:29;;;;;;;7.00;2.20;;;2.00;99.90;;;;;;4896466;29;20206;-74
2023/12/03 20:59:56;;;;;;;4.93;1.73;;;2.00;99.90;;;;;;4896453;29;20238;-74
2023/12/03 21:02:23;;;;;;;4.43;1.63;;;2.10;99.90;;;;;;4896789;29;20289;-73
2023/12/03 21:04:50;;;;;;;5.30;2.40;;;2.20;99.90;;;;;;4897175;29;20269;-74
2023/12/03 21:07:17;;;;;;;4.57;1.60;;;2.10;99.90;;;;;;4897381;29;20210;-73
2023/12/03 21:09:45;;;;;;;7.13;1.40;;;2.10;99.90;;;;;;4897656;29;20618;-73
2023/12/03 21:12:12;;;;;;;6.27;2.23;;;2.10;99.90;;;;;;4897283;29;20341;-77
2023/12/03 21:14:39;;;;;;;2.53;1.20;;;2.10;99.90;;;;;;4897478;29;20269;-73
2023/12/03 21:17:06;;;;;;;4.80;1.50;;;2.10;99.90;;;;;;4898070;29;20210;-80
2023/12/03 21:19:33;;;;;;;3.90;1.50;;;2.10;99.90;;;;;;4898048;29;20716;-72
2023/12/03 21:22:00;;;;;;;3.33;1.73;;;2.10;99.90;;;;;;4897328;29;20249;-73
2023/12/03 21:24:26;;;;;;;3.97;1.30;;;2.10;99.90;;;;;;4897048;29;20769;-74
2023/12/03 21:26:55;;;;;;;4.60;1.60;;;2.10;99.90;;;;;;4897240;29;20301;-73
2023/12/03 21:29:23;;;;;;;5.20;1.80;;;2.20;99.90;;;;;;4897175;29;20293;-73
2023/12/03 21:31:50;;;;;;;4.10;1.30;;;2.20;99.90;;;;;;4897289;29;20302;-73
2023/12/03 21:34:17;;;;;;;2.13;0.87;;;2.20;99.90;;;;;;4897457;29;20234;-75
2023/12/03 21:36:44;;;;;;;4.47;1.70;;;2.20;99.90;;;;;;4897194;29;20244;-76
2023/12/03 21:39:12;;;;;;;5.83;2.07;;;2.20;99.90;;;;;;4897537;29;20258;-73
2023/12/03 21:41:39;;;;;;;5.23;1.43;;;2.20;99.90;;;;;;4897670;29;20214;-72
2023/12/03 21:44:07;;;;;;;2.93;1.30;;;2.20;99.90;;;;;;4896934;29;20321;-78
2023/12/03 21:46:34;;;;;;;4.07;1.40;;;2.30;99.90;;;;;;4897595;29;20242;-77
2023/12/03 21:49:02;;;;;;;3.00;1.53;;;2.30;99.90;;;;;;4896755;29;20346;-73
2023/12/03 21:51:28;;;;;;;4.37;1.33;;;2.30;99.90;;;;;;4897295;29;20202;-73
2023/12/03 21:53:55;;;;;;;4.10;1.30;;;2.40;99.90;;;;;;4896847;29;20227;-76
2023/12/03 21:56:22;;;;;;;3.43;1.30;;;2.50;99.90;;;;;;4897495;29;20210;-73
2023/12/03 21:58:49;;;;;;;7.43;1.97;;;2.50;99.90;;;;;;4896884;29;20230;-73
2023/12/03 22:01:17;;;;;;;3.53;1.87;;;2.50;99.90;;;;;;4896846;29;20333;-75
2023/12/03 22:03:44;;;;;;;3.83;1.80;;;2.60;99.90;;;;;;4896675;29;20634;-74
2023/12/03 22:06:11;;;;;;;4.00;1.73;;;2.60;99.90;;;;;;4897474;29;20210;-72
2023/12/03 22:08:38;;;;;;;7.23;1.37;;;2.70;99.90;;;;;;4897419;29;20291;-73
2023/12/03 22:11:06;;;;;;;4.83;2.13;;;2.70;99.90;;;;;;4898667;29;20306;-83
2023/12/03 22:13:33;;;;;;;4.43;2.00;;;2.70;99.90;;;;;;4900338;29;20317;-73
2023/12/03 22:16:00;;;;;;;5.03;2.07;;;2.70;99.90;;;;;;4900930;29;20222;-73
2023/12/03 22:18:29;;;;;;;4.40;1.43;;;2.80;99.90;;;;;;4900036;29;20678;-79
2023/12/03 22:20:56;;;;;;;2.67;1.00;;;2.80;99.90;;;;;;4900490;29;20238;-85
